sensor_id;sensor_type;location;lat;lon;timestamp;P1;durP1;ratioP1;P2;durP2;ratioP2
41333;SDS011;27078;46.428;6.256;2023-02-23T00:00:00;22.15;;;12.68;;
41333;SDS011;27078;46.428;6.256;2023-02-23T00:02:32;22.50;;;12.75;;
41333;SDS011;27078;46.428;6.256;2023-02-23T00:04:58;20.13;;;12.35;;
41333;SDS011;27078;46.428;6.256;2023-02-23T00:07:23;28.88;;;14.68;;
41333;SDS011;27078;46.428;6.256;2023-02-23T00:09:48;28.55;;;15.00;;
41333;SDS011;27078;46.428;6.256;2023-02-23T00:12:14;23.40;;;13.98;;
41333;SDS011;27078;46.428;6.256;2023-02-23T00:14:41;22.52;;;14.15;;
41333;SDS011;27078;46.428;6.256;2023-02-23T00:17:08;28.38;;;15.52;;
41333;SDS011;27078;46.428;6.256;2023-02-23T00:19:38;24.23;;;13.40;;
41333;SDS011;27078;46.428;6.256;2023-02-23T00:22:03;26.85;;;13.90;;
41333;SDS011;27078;46.428;6.256;2023-02-23T00:24:29;23.35;;;13.80;;
41333;SDS011;27078;46.428;6.256;2023-02-23T00:26:54;24.23;;;14.02;;
41333;SDS011;27078;46.428;6.256;2023-02-23T00:29:20;19.52;;;11.82;;
41333;SDS011;27078;46.428;6.256;2023-02-23T00:31:47;21.70;;;12.27;;
41333;SDS011;27078;46.428;6.256;2023-02-23T00:34:14;21.13;;;12.43;;
41333;SDS011;27078;46.428;6.256;2023-02-23T00:36:45;21.02;;;12.57;;
41333;SDS011;27078;46.428;6.256;2023-02-23T00:39:13;18.08;;;11.70;;
41333;SDS011;27078;46.428;6.256;2023-02-23T00:41:43;18.80;;;11.05;;
41333;SDS011;27078;46.428;6.256;2023-02-23T00:44:09;22.73;;;13.02;;
41333;SDS011;27078;46.428;6.256;2023-02-23T00:46:34;22.73;;;11.90;;
41333;SDS011;27078;46.428;6.256;2023-02-23T00:48:59;22.77;;;12.07;;
41333;SDS011;27078;46.428;6.256;2023-02-23T00:51:25;19.48;;;11.43;;
41333;SDS011;27078;46.428;6.256;2023-02-23T00:53:55;20.77;;;11.73;;
41333;SDS011;27078;46.428;6.256;2023-02-23T00:56:21;20.05;;;11.43;;
41333;SDS011;27078;46.428;6.256;2023-02-23T00:58:47;23.87;;;13.40;;
41333;SDS011;27078;46.428;6.256;2023-02-23T01:01:12;21.58;;;12.43;;
41333;SDS011;27078;46.428;6.256;2023-02-23T01:03:39;29.50;;;16.58;;
41333;SDS011;27078;46.428;6.256;2023-02-23T01:06:06;41.97;;;23.23;;
41333;SDS011;27078;46.428;6.256;2023-02-23T01:08:34;44.63;;;24.27;;
41333;SDS011;27078;46.428;6.256;2023-02-23T01:11:13;42.08;;;23.98;;
41333;SDS011;27078;46.428;6.256;2023-02-23T01:13:45;45.05;;;25.38;;
41333;SDS011;27078;46.428;6.256;2023-02-23T01:16:12;52.85;;;27.58;;
41333;SDS011;27078;46.428;6.256;2023-02-23T01:18:40;54.55;;;28.55;;
41333;SDS011;27078;46.428;6.256;2023-02-23T01:21:15;57.10;;;28.80;;
41333;SDS011;27078;46.428;6.256;2023-02-23T01:23:42;58.92;;;30.95;;
41333;SDS011;27078;46.428;6.256;2023-02-23T01:26:21;65.88;;;34.10;;
41333;SDS011;27078;46.428;6.256;2023-02-23T01:28:52;75.65;;;36.75;;
41333;SDS011;27078;46.428;6.256;2023-02-23T01:31:19;79.78;;;37.17;;
41333;SDS011;27078;46.428;6.256;2023-02-23T01:33:46;80.25;;;37.47;;
41333;SDS011;27078;46.428;6.256;2023-02-23T01:36:11;70.78;;;35.67;;
41333;SDS011;27078;46.428;6.256;2023-02-23T01:38:37;69.82;;;34.95;;
41333;SDS011;27078;46.428;6.256;2023-02-23T01:41:03;66.65;;;34.42;;
41333;SDS011;27078;46.428;6.256;2023-02-23T01:43:31;57.05;;;29.85;;
41333;SDS011;27078;46.428;6.256;2023-02-23T01:45:56;44.72;;;24.40;;
41333;SDS011;27078;46.428;6.256;2023-02-23T01:48:32;42.17;;;23.17;;
41333;SDS011;27078;46.428;6.256;2023-02-23T01:51:03;41.13;;;21.77;;
41333;SDS011;27078;46.428;6.256;2023-02-23T01:53:33;31.52;;;17.80;;
41333;SDS011;27078;46.428;6.256;2023-02-23T01:56:06;28.55;;;15.80;;
41333;SDS011;27078;46.428;6.256;2023-02-23T01:58:35;26.23;;;14.15;;
41333;SDS011;27078;46.428;6.256;2023-02-23T02:01:04;25.35;;;13.88;;
41333;SDS011;27078;46.428;6.256;2023-02-23T02:06:12;22.48;;;12.48;;
41333;SDS011;27078;46.428;6.256;2023-02-23T02:08:42;20.33;;;11.73;;
41333;SDS011;27078;46.428;6.256;2023-02-23T02:11:12;21.08;;;11.95;;
41333;SDS011;27078;46.428;6.256;2023-02-23T02:13:56;21.55;;;11.70;;
41333;SDS011;27078;46.428;6.256;2023-02-23T02:16:29;21.60;;;12.85;;
41333;SDS011;27078;46.428;6.256;2023-02-23T02:41:02;21.75;;;12.80;;
41333;SDS011;27078;46.428;6.256;2023-02-23T02:43:37;22.02;;;12.13;;
41333;SDS011;27078;46.428;6.256;2023-02-23T02:46:34;17.10;;;9.52;;
41333;SDS011;27078;46.428;6.256;2023-02-23T02:49:07;18.40;;;9.63;;
41333;SDS011;27078;46.428;6.256;2023-02-23T02:54:14;20.63;;;10.95;;
41333;SDS011;27078;46.428;6.256;2023-02-23T02:57:03;16.73;;;10.63;;
41333;SDS011;27078;46.428;6.256;2023-02-23T02:59:30;23.25;;;11.45;;
41333;SDS011;27078;46.428;6.256;2023-02-23T03:02:24;20.42;;;10.80;;
41333;SDS011;27078;46.428;6.256;2023-02-23T03:05:15;17.85;;;10.38;;
41333;SDS011;27078;46.428;6.256;2023-02-23T03:11:01;18.65;;;11.18;;
41333;SDS011;27078;46.428;6.256;2023-02-23T03:13:56;29.40;;;14.20;;
41333;SDS011;27078;46.428;6.256;2023-02-23T03:26:22;32.45;;;18.77;;
41333;SDS011;27078;46.428;6.256;2023-02-23T03:29:35;36.70;;;19.63;;
41333;SDS011;27078;46.428;6.256;2023-02-23T03:32:24;35.97;;;18.85;;
41333;SDS011;27078;46.428;6.256;2023-02-23T03:38:32;23.10;;;12.80;;
41333;SDS011;27078;46.428;6.256;2023-02-23T03:41:22;21.95;;;11.15;;
41333;SDS011;27078;46.428;6.256;2023-02-23T03:44:10;19.88;;;10.73;;
41333;SDS011;27078;46.428;6.256;2023-02-23T03:46:57;19.15;;;11.32;;
41333;SDS011;27078;46.428;6.256;2023-02-23T03:49:46;20.33;;;11.15;;
41333;SDS011;27078;46.428;6.256;2023-02-23T03:52:35;22.13;;;11.13;;
41333;SDS011;27078;46.428;6.256;2023-02-23T03:55:29;20.63;;;11.20;;
41333;SDS011;27078;46.428;6.256;2023-02-23T03:58:17;22.73;;;10.95;;
41333;SDS011;27078;46.428;6.256;2023-02-23T04:01:07;18.23;;;10.05;;
41333;SDS011;27078;46.428;6.256;2023-02-23T04:03:55;18.85;;;10.50;;
41333;SDS011;27078;46.428;6.256;2023-02-23T04:06:42;19.77;;;11.15;;
41333;SDS011;27078;46.428;6.256;2023-02-23T04:09:29;19.25;;;10.70;;
41333;SDS011;27078;46.428;6.256;2023-02-23T04:12:20;18.55;;;10.68;;
41333;SDS011;27078;46.428;6.256;2023-02-23T04:17:39;21.10;;;11.48;;
41333;SDS011;27078;46.428;6.256;2023-02-23T04:20:06;22.48;;;12.07;;
41333;SDS011;27078;46.428;6.256;2023-02-23T04:22:34;20.90;;;10.77;;
41333;SDS011;27078;46.428;6.256;2023-02-23T04:25:00;19.33;;;11.15;;
41333;SDS011;27078;46.428;6.256;2023-02-23T04:27:25;23.40;;;13.32;;
41333;SDS011;27078;46.428;6.256;2023-02-23T04:29:50;29.55;;;15.80;;
41333;SDS011;27078;46.428;6.256;2023-02-23T04:32:17;26.48;;;14.13;;
41333;SDS011;27078;46.428;6.256;2023-02-23T04:34:43;26.23;;;13.85;;
41333;SDS011;27078;46.428;6.256;2023-02-23T04:37:10;26.83;;;15.20;;
41333;SDS011;27078;46.428;6.256;2023-02-23T04:39:36;28.50;;;15.65;;
41333;SDS011;27078;46.428;6.256;2023-02-23T04:42:02;38.83;;;20.02;;
41333;SDS011;27078;46.428;6.256;2023-02-23T04:44:28;25.35;;;14.18;;
41333;SDS011;27078;46.428;6.256;2023-02-23T04:46:53;28.63;;;14.77;;
41333;SDS011;27078;46.428;6.256;2023-02-23T04:49:20;24.38;;;12.73;;
41333;SDS011;27078;46.428;6.256;2023-02-23T04:51:45;22.38;;;12.68;;
41333;SDS011;27078;46.428;6.256;2023-02-23T04:54:11;21.45;;;12.57;;
41333;SDS011;27078;46.428;6.256;2023-02-23T04:56:36;21.45;;;12.05;;
41333;SDS011;27078;46.428;6.256;2023-02-23T04:59:03;23.75;;;12.38;;
41333;SDS011;27078;46.428;6.256;2023-02-23T05:01:28;23.42;;;12.88;;
41333;SDS011;27078;46.428;6.256;2023-02-23T05:03:54;28.63;;;13.15;;
41333;SDS011;27078;46.428;6.256;2023-02-23T05:06:19;24.38;;;13.30;;
41333;SDS011;27078;46.428;6.256;2023-02-23T05:08:45;22.92;;;12.45;;
41333;SDS011;27078;46.428;6.256;2023-02-23T05:11:11;21.40;;;11.63;;
41333;SDS011;27078;46.428;6.256;2023-02-23T05:13:36;17.45;;;9.57;;
41333;SDS011;27078;46.428;6.256;2023-02-23T05:16:02;17.77;;;9.88;;
41333;SDS011;27078;46.428;6.256;2023-02-23T05:18:27;22.10;;;12.60;;
41333;SDS011;27078;46.428;6.256;2023-02-23T05:20:53;26.67;;;14.35;;
41333;SDS011;27078;46.428;6.256;2023-02-23T05:23:26;33.88;;;19.10;;
41333;SDS011;27078;46.428;6.256;2023-02-23T05:25:51;43.35;;;23.27;;
41333;SDS011;27078;46.428;6.256;2023-02-23T05:28:16;44.88;;;23.65;;
41333;SDS011;27078;46.428;6.256;2023-02-23T05:30:42;40.63;;;21.05;;
41333;SDS011;27078;46.428;6.256;2023-02-23T05:33:07;38.28;;;19.70;;
41333;SDS011;27078;46.428;6.256;2023-02-23T05:35:32;33.88;;;18.48;;
41333;SDS011;27078;46.428;6.256;2023-02-23T05:37:58;29.48;;;16.75;;
41333;SDS011;27078;46.428;6.256;2023-02-23T05:40:23;34.53;;;19.58;;
41333;SDS011;27078;46.428;6.256;2023-02-23T05:42:48;46.83;;;24.92;;
41333;SDS011;27078;46.428;6.256;2023-02-23T05:45:14;48.40;;;25.25;;
41333;SDS011;27078;46.428;6.256;2023-02-23T05:47:39;53.00;;;28.02;;
41333;SDS011;27078;46.428;6.256;2023-02-23T05:50:05;59.10;;;29.55;;
41333;SDS011;27078;46.428;6.256;2023-02-23T05:52:36;60.60;;;29.58;;
41333;SDS011;27078;46.428;6.256;2023-02-23T05:55:04;56.33;;;27.63;;
41333;SDS011;27078;46.428;6.256;2023-02-23T05:57:29;56.85;;;28.25;;
41333;SDS011;27078;46.428;6.256;2023-02-23T05:59:55;48.70;;;27.08;;
41333;SDS011;27078;46.428;6.256;2023-02-23T06:02:20;52.08;;;27.75;;
41333;SDS011;27078;46.428;6.256;2023-02-23T06:04:46;54.38;;;28.40;;
41333;SDS011;27078;46.428;6.256;2023-02-23T06:07:11;54.30;;;27.60;;
41333;SDS011;27078;46.428;6.256;2023-02-23T06:09:37;48.38;;;26.35;;
41333;SDS011;27078;46.428;6.256;2023-02-23T06:12:02;49.30;;;26.85;;
41333;SDS011;27078;46.428;6.256;2023-02-23T06:14:28;49.70;;;26.95;;
41333;SDS011;27078;46.428;6.256;2023-02-23T06:16:53;49.72;;;26.88;;
41333;SDS011;27078;46.428;6.256;2023-02-23T06:19:19;48.30;;;27.35;;
41333;SDS011;27078;46.428;6.256;2023-02-23T06:21:44;54.08;;;28.23;;
41333;SDS011;27078;46.428;6.256;2023-02-23T06:24:10;51.10;;;28.20;;
41333;SDS011;27078;46.428;6.256;2023-02-23T06:26:36;55.60;;;29.88;;
41333;SDS011;27078;46.428;6.256;2023-02-23T06:29:01;49.45;;;27.73;;
41333;SDS011;27078;46.428;6.256;2023-02-23T06:31:27;55.38;;;28.48;;
41333;SDS011;27078;46.428;6.256;2023-02-23T06:33:53;49.95;;;27.92;;
41333;SDS011;27078;46.428;6.256;2023-02-23T06:36:18;57.03;;;29.95;;
41333;SDS011;27078;46.428;6.256;2023-02-23T06:38:43;59.63;;;32.05;;
41333;SDS011;27078;46.428;6.256;2023-02-23T06:41:10;61.10;;;31.20;;
41333;SDS011;27078;46.428;6.256;2023-02-23T06:43:36;68.80;;;33.75;;
41333;SDS011;27078;46.428;6.256;2023-02-23T06:46:01;78.03;;;37.00;;
41333;SDS011;27078;46.428;6.256;2023-02-23T06:48:27;71.15;;;35.95;;
41333;SDS011;27078;46.428;6.256;2023-02-23T06:50:52;77.57;;;37.90;;
41333;SDS011;27078;46.428;6.256;2023-02-23T06:53:18;76.85;;;37.22;;
41333;SDS011;27078;46.428;6.256;2023-02-23T06:55:44;82.00;;;39.13;;
41333;SDS011;27078;46.428;6.256;2023-02-23T06:58:10;82.88;;;39.47;;
41333;SDS011;27078;46.428;6.256;2023-02-23T07:00:35;75.03;;;35.97;;
41333;SDS011;27078;46.428;6.256;2023-02-23T07:03:03;71.07;;;35.70;;
41333;SDS011;27078;46.428;6.256;2023-02-23T07:05:28;66.00;;;33.63;;
41333;SDS011;27078;46.428;6.256;2023-02-23T07:07:54;74.97;;;36.97;;
41333;SDS011;27078;46.428;6.256;2023-02-23T07:10:19;74.32;;;36.15;;
41333;SDS011;27078;46.428;6.256;2023-02-23T07:12:44;76.60;;;36.90;;
41333;SDS011;27078;46.428;6.256;2023-02-23T07:15:10;74.13;;;35.55;;
41333;SDS011;27078;46.428;6.256;2023-02-23T07:17:36;66.40;;;34.50;;
41333;SDS011;27078;46.428;6.256;2023-02-23T07:20:02;63.17;;;32.40;;
41333;SDS011;27078;46.428;6.256;2023-02-23T07:22:28;61.55;;;31.38;;
41333;SDS011;27078;46.428;6.256;2023-02-23T07:24:54;54.55;;;29.92;;
41333;SDS011;27078;46.428;6.256;2023-02-23T07:27:20;59.97;;;32.35;;
41333;SDS011;27078;46.428;6.256;2023-02-23T07:29:46;60.33;;;31.90;;
41333;SDS011;27078;46.428;6.256;2023-02-23T07:32:11;62.13;;;31.38;;
41333;SDS011;27078;46.428;6.256;2023-02-23T07:34:36;57.85;;;30.80;;
41333;SDS011;27078;46.428;6.256;2023-02-23T07:37:02;58.65;;;31.25;;
41333;SDS011;27078;46.428;6.256;2023-02-23T07:39:27;52.85;;;30.00;;
41333;SDS011;27078;46.428;6.256;2023-02-23T07:41:52;56.63;;;30.30;;
41333;SDS011;27078;46.428;6.256;2023-02-23T07:44:18;53.20;;;29.92;;
41333;SDS011;27078;46.428;6.256;2023-02-23T07:46:43;53.28;;;29.45;;
41333;SDS011;27078;46.428;6.256;2023-02-23T07:49:10;56.17;;;29.73;;
41333;SDS011;27078;46.428;6.256;2023-02-23T07:51:36;54.75;;;30.50;;
41333;SDS011;27078;46.428;6.256;2023-02-23T07:54:03;57.58;;;30.17;;
41333;SDS011;27078;46.428;6.256;2023-02-23T07:56:29;53.22;;;29.50;;
41333;SDS011;27078;46.428;6.256;2023-02-23T07:58:54;54.60;;;28.83;;
41333;SDS011;27078;46.428;6.256;2023-02-23T08:01:20;54.80;;;30.00;;
41333;SDS011;27078;46.428;6.256;2023-02-23T08:03:45;50.28;;;27.80;;
41333;SDS011;27078;46.428;6.256;2023-02-23T08:06:13;57.10;;;29.92;;
41333;SDS011;27078;46.428;6.256;2023-02-23T08:08:40;55.83;;;29.27;;
41333;SDS011;27078;46.428;6.256;2023-02-23T08:11:06;51.17;;;29.17;;
41333;SDS011;27078;46.428;6.256;2023-02-23T08:13:31;52.88;;;28.08;;
41333;SDS011;27078;46.428;6.256;2023-02-23T08:15:58;55.03;;;28.90;;
41333;SDS011;27078;46.428;6.256;2023-02-23T08:18:23;53.47;;;29.73;;
41333;SDS011;27078;46.428;6.256;2023-02-23T08:20:49;51.70;;;28.40;;
41333;SDS011;27078;46.428;6.256;2023-02-23T08:23:14;52.70;;;27.92;;
41333;SDS011;27078;46.428;6.256;2023-02-23T08:25:42;52.40;;;28.52;;
41333;SDS011;27078;46.428;6.256;2023-02-23T08:28:07;52.08;;;28.17;;
41333;SDS011;27078;46.428;6.256;2023-02-23T08:30:32;48.25;;;27.08;;
41333;SDS011;27078;46.428;6.256;2023-02-23T08:32:58;49.75;;;28.52;;
41333;SDS011;27078;46.428;6.256;2023-02-23T08:35:25;53.95;;;29.70;;
41333;SDS011;27078;46.428;6.256;2023-02-23T08:37:51;49.35;;;26.92;;
41333;SDS011;27078;46.428;6.256;2023-02-23T08:40:17;57.25;;;30.42;;
41333;SDS011;27078;46.428;6.256;2023-02-23T08:42:49;49.13;;;28.60;;
41333;SDS011;27078;46.428;6.256;2023-02-23T08:45:37;48.08;;;27.70;;
41333;SDS011;27078;46.428;6.256;2023-02-23T08:48:25;47.20;;;26.60;;
41333;SDS011;27078;46.428;6.256;2023-02-23T08:51:01;48.75;;;27.02;;
41333;SDS011;27078;46.428;6.256;2023-02-23T08:53:39;52.13;;;30.77;;
41333;SDS011;27078;46.428;6.256;2023-02-23T08:56:05;47.97;;;27.38;;
41333;SDS011;27078;46.428;6.256;2023-02-23T08:58:32;49.00;;;26.75;;
41333;SDS011;27078;46.428;6.256;2023-02-23T09:00:58;47.08;;;27.02;;
41333;SDS011;27078;46.428;6.256;2023-02-23T09:03:24;47.97;;;26.75;;
41333;SDS011;27078;46.428;6.256;2023-02-23T09:05:55;49.90;;;28.30;;
41333;SDS011;27078;46.428;6.256;2023-02-23T09:08:30;48.08;;;27.48;;
41333;SDS011;27078;46.428;6.256;2023-02-23T09:10:55;46.25;;;27.35;;
41333;SDS011;27078;46.428;6.256;2023-02-23T09:13:20;48.50;;;26.38;;
41333;SDS011;27078;46.428;6.256;2023-02-23T09:15:48;41.65;;;25.40;;
41333;SDS011;27078;46.428;6.256;2023-02-23T09:18:16;67.47;;;38.50;;
41333;SDS011;27078;46.428;6.256;2023-02-23T09:20:42;49.55;;;29.08;;
41333;SDS011;27078;46.428;6.256;2023-02-23T09:23:09;40.92;;;22.58;;
41333;SDS011;27078;46.428;6.256;2023-02-23T09:25:41;36.00;;;21.30;;
41333;SDS011;27078;46.428;6.256;2023-02-23T09:28:15;44.97;;;25.08;;
41333;SDS011;27078;46.428;6.256;2023-02-23T09:30:43;37.03;;;21.58;;
41333;SDS011;27078;46.428;6.256;2023-02-23T09:33:09;40.72;;;23.40;;
41333;SDS011;27078;46.428;6.256;2023-02-23T09:35:35;30.50;;;17.92;;
41333;SDS011;27078;46.428;6.256;2023-02-23T09:38:01;30.10;;;18.33;;
41333;SDS011;27078;46.428;6.256;2023-02-23T09:40:35;30.52;;;17.67;;
41333;SDS011;27078;46.428;6.256;2023-02-23T09:48:34;32.60;;;19.13;;
41333;SDS011;27078;46.428;6.256;2023-02-23T09:50:59;40.85;;;22.88;;
41333;SDS011;27078;46.428;6.256;2023-02-23T09:53:37;38.53;;;22.77;;
41333;SDS011;27078;46.428;6.256;2023-02-23T09:56:11;37.83;;;22.13;;
41333;SDS011;27078;46.428;6.256;2023-02-23T09:58:40;39.42;;;22.77;;
41333;SDS011;27078;46.428;6.256;2023-02-23T10:01:10;38.55;;;22.30;;
41333;SDS011;27078;46.428;6.256;2023-02-23T10:06:58;33.78;;;20.35;;
41333;SDS011;27078;46.428;6.256;2023-02-23T10:12:16;34.22;;;19.63;;
41333;SDS011;27078;46.428;6.256;2023-02-23T10:22:51;36.95;;;20.02;;
41333;SDS011;27078;46.428;6.256;2023-02-23T10:25:23;38.75;;;20.83;;
41333;SDS011;27078;46.428;6.256;2023-02-23T10:27:51;33.15;;;19.50;;
41333;SDS011;27078;46.428;6.256;2023-02-23T10:30:23;41.10;;;22.85;;
41333;SDS011;27078;46.428;6.256;2023-02-23T10:35:28;38.45;;;20.77;;
41333;SDS011;27078;46.428;6.256;2023-02-23T10:37:54;37.85;;;21.55;;
41333;SDS011;27078;46.428;6.256;2023-02-23T10:40:22;37.28;;;21.30;;
41333;SDS011;27078;46.428;6.256;2023-02-23T10:42:49;31.73;;;18.63;;
41333;SDS011;27078;46.428;6.256;2023-02-23T10:45:20;32.30;;;19.23;;
41333;SDS011;27078;46.428;6.256;2023-02-23T10:50:49;30.58;;;18.52;;
41333;SDS011;27078;46.428;6.256;2023-02-23T10:53:22;31.13;;;18.27;;
41333;SDS011;27078;46.428;6.256;2023-02-23T10:55:59;28.08;;;16.73;;
41333;SDS011;27078;46.428;6.256;2023-02-23T10:58:26;29.23;;;17.65;;
41333;SDS011;27078;46.428;6.256;2023-02-23T11:00:59;24.90;;;14.68;;
41333;SDS011;27078;46.428;6.256;2023-02-23T11:05:57;32.90;;;19.20;;
41333;SDS011;27078;46.428;6.256;2023-02-23T11:08:23;30.23;;;18.00;;
41333;SDS011;27078;46.428;6.256;2023-02-23T11:10:57;32.10;;;19.02;;
41333;SDS011;27078;46.428;6.256;2023-02-23T11:13:27;28.10;;;17.67;;
41333;SDS011;27078;46.428;6.256;2023-02-23T11:16:06;30.95;;;17.60;;
41333;SDS011;27078;46.428;6.256;2023-02-23T11:18:34;26.88;;;16.90;;
41333;SDS011;27078;46.428;6.256;2023-02-23T11:21:00;26.13;;;15.70;;
41333;SDS011;27078;46.428;6.256;2023-02-23T11:23:27;27.52;;;15.82;;
41333;SDS011;27078;46.428;6.256;2023-02-23T11:25:59;28.20;;;16.55;;
41333;SDS011;27078;46.428;6.256;2023-02-23T11:28:32;25.25;;;15.50;;
41333;SDS011;27078;46.428;6.256;2023-02-23T11:31:14;27.05;;;15.77;;
41333;SDS011;27078;46.428;6.256;2023-02-23T11:33:43;25.02;;;14.52;;
41333;SDS011;27078;46.428;6.256;2023-02-23T11:39:01;23.58;;;14.15;;
41333;SDS011;27078;46.428;6.256;2023-02-23T11:41:26;25.95;;;15.25;;
41333;SDS011;27078;46.428;6.256;2023-02-23T11:43:58;28.42;;;15.27;;
41333;SDS011;27078;46.428;6.256;2023-02-23T11:46:26;28.17;;;15.20;;
41333;SDS011;27078;46.428;6.256;2023-02-23T11:48:59;23.63;;;13.35;;
41333;SDS011;27078;46.428;6.256;2023-02-23T11:51:32;25.67;;;15.25;;
41333;SDS011;27078;46.428;6.256;2023-02-23T11:53:57;23.52;;;15.40;;
41333;SDS011;27078;46.428;6.256;2023-02-23T11:56:24;23.92;;;14.95;;
41333;SDS011;27078;46.428;6.256;2023-02-23T11:58:53;26.95;;;15.70;;
41333;SDS011;27078;46.428;6.256;2023-02-23T12:01:22;22.80;;;13.52;;
41333;SDS011;27078;46.428;6.256;2023-02-23T12:04:00;23.15;;;14.45;;
41333;SDS011;27078;46.428;6.256;2023-02-23T12:06:31;20.00;;;12.50;;
41333;SDS011;27078;46.428;6.256;2023-02-23T12:11:28;23.70;;;13.75;;
41333;SDS011;27078;46.428;6.256;2023-02-23T12:14:21;19.30;;;12.30;;
41333;SDS011;27078;46.428;6.256;2023-02-23T12:17:03;18.70;;;11.43;;
41333;SDS011;27078;46.428;6.256;2023-02-23T12:19:35;21.15;;;12.25;;
41333;SDS011;27078;46.428;6.256;2023-02-23T12:22:13;18.70;;;11.05;;
41333;SDS011;27078;46.428;6.256;2023-02-23T12:33:52;19.88;;;12.15;;
41333;SDS011;27078;46.428;6.256;2023-02-23T12:36:40;16.83;;;9.70;;
41333;SDS011;27078;46.428;6.256;2023-02-23T12:39:17;17.20;;;9.57;;
41333;SDS011;27078;46.428;6.256;2023-02-23T12:44:34;14.85;;;8.13;;
41333;SDS011;27078;46.428;6.256;2023-02-23T12:50:30;14.40;;;8.82;;
41333;SDS011;27078;46.428;6.256;2023-02-23T13:01:11;14.73;;;8.75;;
41333;SDS011;27078;46.428;6.256;2023-02-23T13:19:46;10.93;;;4.78;;
41333;SDS011;27078;46.428;6.256;2023-02-23T13:22:30;11.30;;;5.78;;
41333;SDS011;27078;46.428;6.256;2023-02-23T13:25:23;13.15;;;5.95;;
41333;SDS011;27078;46.428;6.256;2023-02-23T13:27:52;12.48;;;6.43;;
41333;SDS011;27078;46.428;6.256;2023-02-23T13:30:22;12.32;;;7.10;;
41333;SDS011;27078;46.428;6.256;2023-02-23T13:32:47;11.98;;;7.20;;
41333;SDS011;27078;46.428;6.256;2023-02-23T13:35:15;13.80;;;6.65;;
41333;SDS011;27078;46.428;6.256;2023-02-23T13:38:05;13.32;;;7.07;;
41333;SDS011;27078;46.428;6.256;2023-02-23T13:40:51;10.20;;;6.40;;
41333;SDS011;27078;46.428;6.256;2023-02-23T13:43:38;12.25;;;6.50;;
41333;SDS011;27078;46.428;6.256;2023-02-23T13:54:51;11.55;;;5.60;;
41333;SDS011;27078;46.428;6.256;2023-02-23T13:57:21;12.55;;;5.28;;
41333;SDS011;27078;46.428;6.256;2023-02-23T13:59:48;21.20;;;5.75;;
41333;SDS011;27078;46.428;6.256;2023-02-23T14:04:50;9.68;;;4.63;;
41333;SDS011;27078;46.428;6.256;2023-02-23T14:07:17;14.05;;;4.60;;
41333;SDS011;27078;46.428;6.256;2023-02-23T14:12:32;10.30;;;4.03;;
41333;SDS011;27078;46.428;6.256;2023-02-23T14:17:54;11.30;;;4.55;;
41333;SDS011;27078;46.428;6.256;2023-02-23T14:33:35;10.60;;;3.60;;
41333;SDS011;27078;46.428;6.256;2023-02-23T14:38:50;8.15;;;4.00;;
41333;SDS011;27078;46.428;6.256;2023-02-23T14:41:21;7.95;;;3.70;;
41333;SDS011;27078;46.428;6.256;2023-02-23T14:46:45;9.52;;;4.55;;
41333;SDS011;27078;46.428;6.256;2023-02-23T14:49:16;9.15;;;4.65;;
41333;SDS011;27078;46.428;6.256;2023-02-23T14:51:44;10.80;;;5.47;;
41333;SDS011;27078;46.428;6.256;2023-02-23T14:56:44;9.52;;;4.55;;
41333;SDS011;27078;46.428;6.256;2023-02-23T14:59:14;9.43;;;4.87;;
41333;SDS011;27078;46.428;6.256;2023-02-23T15:02:03;9.52;;;4.53;;
41333;SDS011;27078;46.428;6.256;2023-02-23T15:04:49;9.40;;;4.93;;
41333;SDS011;27078;46.428;6.256;2023-02-23T15:07:17;9.88;;;5.22;;
41333;SDS011;27078;46.428;6.256;2023-02-23T15:10:08;13.38;;;5.70;;
41333;SDS011;27078;46.428;6.256;2023-02-23T15:12:46;11.15;;;5.40;;
41333;SDS011;27078;46.428;6.256;2023-02-23T15:15:16;11.02;;;5.70;;
41333;SDS011;27078;46.428;6.256;2023-02-23T15:17:45;13.47;;;6.00;;
41333;SDS011;27078;46.428;6.256;2023-02-23T15:20:18;11.10;;;6.03;;
41333;SDS011;27078;46.428;6.256;2023-02-23T15:22:50;10.77;;;6.35;;
41333;SDS011;27078;46.428;6.256;2023-02-23T15:27:50;13.82;;;6.90;;
41333;SDS011;27078;46.428;6.256;2023-02-23T15:33:01;15.00;;;6.75;;
41333;SDS011;27078;46.428;6.256;2023-02-23T15:35:27;11.65;;;5.78;;
41333;SDS011;27078;46.428;6.256;2023-02-23T15:37:54;13.13;;;6.13;;
41333;SDS011;27078;46.428;6.256;2023-02-23T15:40:22;9.32;;;5.63;;
41333;SDS011;27078;46.428;6.256;2023-02-23T15:42:50;9.15;;;5.50;;
41333;SDS011;27078;46.428;6.256;2023-02-23T15:48:08;12.23;;;5.50;;
41333;SDS011;27078;46.428;6.256;2023-02-23T15:51:05;9.95;;;5.30;;
41333;SDS011;27078;46.428;6.256;2023-02-23T15:53:50;10.70;;;5.57;;
41333;SDS011;27078;46.428;6.256;2023-02-23T15:56:20;13.52;;;5.13;;
41333;SDS011;27078;46.428;6.256;2023-02-23T15:58:56;10.15;;;5.20;;
41333;SDS011;27078;46.428;6.256;2023-02-23T16:01:41;10.38;;;5.60;;
41333;SDS011;27078;46.428;6.256;2023-02-23T16:04:18;9.70;;;5.70;;
41333;SDS011;27078;46.428;6.256;2023-02-23T16:06:49;11.45;;;5.93;;
41333;SDS011;27078;46.428;6.256;2023-02-23T16:12:01;12.60;;;6.90;;
41333;SDS011;27078;46.428;6.256;2023-02-23T16:14:55;12.07;;;6.70;;
41333;SDS011;27078;46.428;6.256;2023-02-23T16:19:51;14.00;;;7.15;;
41333;SDS011;27078;46.428;6.256;2023-02-23T16:22:21;13.15;;;7.03;;
41333;SDS011;27078;46.428;6.256;2023-02-23T16:24:55;11.75;;;6.75;;
41333;SDS011;27078;46.428;6.256;2023-02-23T16:27:25;10.70;;;6.45;;
41333;SDS011;27078;46.428;6.256;2023-02-23T16:29:57;10.80;;;6.15;;
41333;SDS011;27078;46.428;6.256;2023-02-23T16:32:35;13.57;;;6.90;;
41333;SDS011;27078;46.428;6.256;2023-02-23T16:35:23;10.23;;;6.00;;
41333;SDS011;27078;46.428;6.256;2023-02-23T16:38:00;12.35;;;6.22;;
41333;SDS011;27078;46.428;6.256;2023-02-23T16:40:37;10.77;;;5.78;;
41333;SDS011;27078;46.428;6.256;2023-02-23T16:43:04;10.85;;;6.05;;
41333;SDS011;27078;46.428;6.256;2023-02-23T16:45:30;12.77;;;5.53;;
41333;SDS011;27078;46.428;6.256;2023-02-23T16:47:58;10.65;;;5.03;;
41333;SDS011;27078;46.428;6.256;2023-02-23T16:50:37;8.90;;;4.10;;
41333;SDS011;27078;46.428;6.256;2023-02-23T16:53:06;8.50;;;4.30;;
41333;SDS011;27078;46.428;6.256;2023-02-23T16:55:44;9.55;;;4.05;;
41333;SDS011;27078;46.428;6.256;2023-02-23T16:58:15;7.78;;;3.95;;
41333;SDS011;27078;46.428;6.256;2023-02-23T17:00:42;9.73;;;4.10;;
41333;SDS011;27078;46.428;6.256;2023-02-23T17:03:18;9.50;;;4.05;;
41333;SDS011;27078;46.428;6.256;2023-02-23T17:05:46;9.50;;;4.65;;
41333;SDS011;27078;46.428;6.256;2023-02-23T17:08:12;10.85;;;4.90;;
41333;SDS011;27078;46.428;6.256;2023-02-23T17:10:39;11.13;;;4.78;;
41333;SDS011;27078;46.428;6.256;2023-02-23T17:13:18;10.88;;;4.68;;
41333;SDS011;27078;46.428;6.256;2023-02-23T17:15:52;11.80;;;5.47;;
41333;SDS011;27078;46.428;6.256;2023-02-23T17:18:28;9.95;;;5.32;;
41333;SDS011;27078;46.428;6.256;2023-02-23T17:20:58;11.98;;;5.20;;
41333;SDS011;27078;46.428;6.256;2023-02-23T17:23:38;13.25;;;4.78;;
41333;SDS011;27078;46.428;6.256;2023-02-23T17:26:26;10.95;;;5.10;;
41333;SDS011;27078;46.428;6.256;2023-02-23T17:28:51;13.88;;;6.10;;
41333;SDS011;27078;46.428;6.256;2023-02-23T17:31:20;16.40;;;6.28;;
41333;SDS011;27078;46.428;6.256;2023-02-23T17:33:57;13.10;;;6.15;;
41333;SDS011;27078;46.428;6.256;2023-02-23T17:36:22;13.43;;;6.30;;